Aviation Digital Data Service (ADDS)

Output produced by TAFs form (1857 UTC 16 April 2014)
found at http://aviationweather.gov/adds/tafs/
 
KEGE 161736Z 1618/1718 VRB03KT P6SM FEW070 SCT150 
     FM161900 25010G20KT P6SM VCSH SCT070 BKN150 
     FM170100 05004KT P6SM BKN120 
     FM170700 00000KT P6SM SCT200